Terminal Aerodrome Forecast
Issued by NWS Portland, ME

Current Version | Previous Version | Text Only | Print | Product List | Glossary On
Versions: 1 2 3 4 5 6 7 8 9 10 11 12 13 14 15 16 17 18 19 20 21 22 23 24 25
000 FTUS41 KGYX 172320 TAFPWM TAF KPWM 172320Z 1800/1824 VRB04KT 5SM -SN OVC015 TEMPO 1800/1801 2SM -SN BR SCT020 BKN035 OVC050 FM180100 31004KT P6SM SCT020 BKN035 OVC050 TEMPO 1801/1805 -SHSN BKN025 OVC040 FM180900 VRB03KT P6SM SCT050 SCT100 FM181400 34006KT P6SM SCT250=

USA.gov is the U.S. government's official web portal to all federal, state and local government web resources and services.